Back to Top

Language: 

My Weather Underground Personal Weather Station Historical Data with Graphs...

Delerius Weather Station Historical Data
Daily Summary for December 9, 2017 Units:  English    Metric   Both
« Previous Day
Next Day »
Daily Weekly Monthly Yearly Custom
  High: Low: Average:
Temperature: 36.7 °F 29.7 °F 33.5 °F
Dew Point: 32.3 °F 25.1 °F 29.5 °F
Humidity: 94 % 75 % 85 %
Wind Speed: 14.0 mph 0.0 mph 5.9 mph
Wind Gust: 22.0 mph - -
Wind:- - WNW
Pressure: 30.02 in 29.54 in -
Precipitation: 0.00 in    
Historical Graphs
 
 
Tabular Data for December 9, 2017
Time Temperature Dew Point Pressure Wind Wind Speed Wind Gust Humidity Rainfall Rate (Hourly) solar Conditions
00:04 33.1 °F 26.3 °F 30.01 in WNW 10.0 mph 16.0 mph 76 % 0.00 in 0 W/m2
00:09 33.1 °F 26.3 °F 30.01 in WNW 11.0 mph 18.0 mph 76 % 0.00 in 0 W/m2
00:14 33.1 °F 26.3 °F 30.01 in WNW 12.0 mph 16.0 mph 76 % 0.00 in 0 W/m2
00:19 33.1 °F 26.3 °F 30.01 in WNW 11.0 mph 21.0 mph 76 % 0.00 in 0 W/m2
00:24 33.1 °F 26.3 °F 30.01 in WNW 11.0 mph 19.0 mph 76 % 0.00 in 0 W/m2
00:29 33.1 °F 26.3 °F 30.01 in WNW 10.0 mph 16.0 mph 76 % 0.00 in 0 W/m2
00:34 33.1 °F 26.3 °F 30.01 in WNW 10.0 mph 16.0 mph 76 % 0.00 in 0 W/m2
00:39 33.1 °F 26.3 °F 30.01 in WNW 10.0 mph 20.0 mph 76 % 0.00 in 0 W/m2
00:44 33.1 °F 26.3 °F 30.02 in WNW 12.0 mph 18.0 mph 76 % 0.00 in 0 W/m2
00:49 33.3 °F 26.2 °F 30.01 in WNW 11.0 mph 21.0 mph 75 % 0.00 in 0 W/m2
00:54 33.3 °F 26.2 °F 30.01 in WNW 10.0 mph 15.0 mph 75 % 0.00 in 0 W/m2
00:59 33.4 °F 26.7 °F 30.01 in WNW 12.0 mph 19.0 mph 76 % 0.00 in 0 W/m2
01:05 33.4 °F 26.7 °F 30.01 in WNW 14.0 mph 20.0 mph 76 % 0.00 in 0 W/m2
01:10 33.4 °F 26.7 °F 30.01 in WNW 13.0 mph 22.0 mph 76 % 0.00 in 0 W/m2
01:15 33.4 °F 26.7 °F 30.01 in WNW 12.0 mph 18.0 mph 76 % 0.00 in 0 W/m2
01:20 33.4 °F 26.7 °F 30.01 in WNW 13.0 mph 19.0 mph 76 % 0.00 in 0 W/m2
01:25 33.3 °F 26.5 °F 30.01 in WNW 12.0 mph 16.0 mph 76 % 0.00 in 0 W/m2
01:30 33.3 °F 26.8 °F 30.01 in WNW 14.0 mph 21.0 mph 77 % 0.00 in 0 W/m2
01:35 33.3 °F 26.8 °F 30.01 in WNW 13.0 mph 21.0 mph 77 % 0.00 in 0 W/m2
01:40 33.4 °F 27.0 °F 30.01 in WNW 11.0 mph 15.0 mph 77 % 0.00 in 0 W/m2
01:45 33.3 °F 26.8 °F 30.01 in WNW 10.0 mph 16.0 mph 77 % 0.00 in 0 W/m2
01:55 33.3 °F 27.1 °F 30.01 in WNW 13.0 mph 19.0 mph 78 % 0.00 in 0 W/m2
02:00 33.3 °F 26.8 °F 30.01 in WNW 11.0 mph 19.0 mph 77 % 0.00 in 0 W/m2
02:10 33.3 °F 27.1 °F 30.02 in WNW 11.0 mph 14.0 mph 78 % 0.00 in 0 W/m2
02:15 33.3 °F 26.8 °F 30.02 in WNW 9.0 mph 13.0 mph 77 % 0.00 in 0 W/m2
02:20 33.3 °F 26.8 °F 30.02 in WNW 10.0 mph 18.0 mph 77 % 0.00 in 0 W/m2
02:25 33.4 °F 27.0 °F 30.02 in WNW 11.0 mph 20.0 mph 77 % 0.00 in 0 W/m2
02:30 33.4 °F 27.3 °F 30.02 in WNW 11.0 mph 18.0 mph 78 % 0.00 in 0 W/m2
02:35 33.4 °F 27.3 °F 30.01 in WNW 9.0 mph 13.0 mph 78 % 0.00 in 0 W/m2
02:40 33.3 °F 27.1 °F 30.01 in WNW 10.0 mph 16.0 mph 78 % 0.00 in 0 W/m2
02:45 33.3 °F 27.1 °F 30.01 in NW 8.0 mph 12.0 mph 78 % 0.00 in 0 W/m2
02:50 33.1 °F 27.0 °F 30.01 in WNW 8.0 mph 13.0 mph 78 % 0.00 in 0 W/m2
02:55 33.1 °F 27.0 °F 30.01 in WNW 9.0 mph 14.0 mph 78 % 0.00 in 0 W/m2
03:00 33.1 °F 27.0 °F 30.01 in WNW 10.0 mph 15.0 mph 78 % 0.00 in 0 W/m2
03:05 33.1 °F 27.0 °F 30.01 in WNW 9.0 mph 12.0 mph 78 % 0.00 in 0 W/m2
03:10 33.1 °F 27.3 °F 30.01 in WNW 7.0 mph 10.0 mph 79 % 0.00 in 0 W/m2
03:16 32.9 °F 27.1 °F 30.01 in WNW 6.0 mph 11.0 mph 79 % 0.00 in 0 W/m2
03:20 32.7 °F 26.9 °F 30.01 in NW 6.0 mph 9.0 mph 79 % 0.00 in 0 W/m2
03:21 32.7 °F 26.9 °F 30.01 in NW 7.0 mph 9.0 mph 79 % 0.00 in 0 W/m2
03:26 32.5 °F 27.1 °F 30.01 in NW 6.0 mph 12.0 mph 80 % 0.00 in 0 W/m2
03:29 32.5 °F 27.1 °F 30.01 in WNW 5.0 mph 8.0 mph 80 % 0.00 in 0 W/m2
03:34 32.4 °F 26.9 °F 30.01 in WNW 8.0 mph 12.0 mph 80 % 0.00 in 0 W/m2
03:39 32.4 °F 26.9 °F 30.01 in WNW 10.0 mph 15.0 mph 80 % 0.00 in 0 W/m2
03:44 32.5 °F 27.1 °F 30.01 in WNW 10.0 mph 14.0 mph 80 % 0.00 in 0 W/m2
03:49 32.5 °F 27.1 °F 30.00 in WNW 9.0 mph 15.0 mph 80 % 0.00 in 0 W/m2
03:54 32.5 °F 27.1 °F 30.00 in WNW 10.0 mph 14.0 mph 80 % 0.00 in 0 W/m2
04:04 32.5 °F 27.1 °F 30.00 in WNW 8.0 mph 11.0 mph 80 % 0.00 in 0 W/m2
04:09 32.5 °F 27.1 °F 30.00 in WNW 7.0 mph 11.0 mph 80 % 0.00 in 0 W/m2
04:14 32.5 °F 27.1 °F 30.00 in WNW 8.0 mph 12.0 mph 80 % 0.00 in 0 W/m2
04:19 32.5 °F 27.1 °F 30.00 in WNW 7.0 mph 9.0 mph 80 % 0.00 in 0 W/m2
04:24 32.4 °F 26.9 °F 30.00 in West 5.0 mph 7.0 mph 80 % 0.00 in 0 W/m2
04:29 32.2 °F 26.7 °F 29.99 in West 5.0 mph 8.0 mph 80 % 0.00 in 0 W/m2
04:34 32.2 °F 27.0 °F 29.99 in WNW 6.0 mph 9.0 mph 81 % 0.00 in 0 W/m2
04:39 32.0 °F 26.8 °F 29.99 in WNW 8.0 mph 12.0 mph 81 % 0.00 in 0 W/m2
04:44 32.0 °F 26.8 °F 29.99 in WNW 11.0 mph 18.0 mph 81 % 0.00 in 0 W/m2
04:54 32.5 °F 27.1 °F 29.99 in WNW 12.0 mph 18.0 mph 80 % 0.00 in 0 W/m2
04:57 32.5 °F 27.1 °F 29.99 in WNW 11.0 mph 18.0 mph 80 % 0.00 in 0 W/m2
05:02 32.7 °F 27.2 °F 29.99 in WNW 13.0 mph 19.0 mph 80 % 0.00 in 0 W/m2
05:07 32.9 °F 27.1 °F 29.99 in WNW 11.0 mph 16.0 mph 79 % 0.00 in 0 W/m2
05:12 32.9 °F 27.1 °F 29.99 in WNW 10.0 mph 13.0 mph 79 % 0.00 in 0 W/m2
05:17 32.9 °F 26.8 °F 29.99 in WNW 11.0 mph 16.0 mph 78 % 0.00 in 0 W/m2
05:22 32.9 °F 26.8 °F 29.99 in WNW 9.0 mph 13.0 mph 78 % 0.00 in 0 W/m2
05:27 32.7 °F 26.6 °F 29.99 in WNW 8.0 mph 14.0 mph 78 % 0.00 in 0 W/m2
05:32 32.7 °F 26.6 °F 29.99 in WNW 8.0 mph 12.0 mph 78 % 0.00 in 0 W/m2
05:42 32.7 °F 26.3 °F 29.99 in West 10.0 mph 16.0 mph 77 % 0.00 in 0 W/m2
05:52 32.7 °F 26.3 °F 29.99 in West 10.0 mph 15.0 mph 77 % 0.00 in 0 W/m2
05:57 32.5 °F 26.1 °F 29.99 in West 9.0 mph 14.0 mph 77 % 0.00 in 0 W/m2
06:02 32.4 °F 26.3 °F 29.99 in WNW 9.0 mph 13.0 mph 78 % 0.00 in 0 W/m2
06:07 32.2 °F 26.1 °F 29.99 in WNW 9.0 mph 13.0 mph 78 % 0.00 in 0 W/m2
06:12 32.0 °F 25.9 °F 29.99 in WNW 7.0 mph 9.0 mph 78 % 0.00 in 0 W/m2
06:18 31.8 °F 25.7 °F 29.99 in WNW 8.0 mph 11.0 mph 78 % 0.00 in 0 W/m2
06:23 31.6 °F 25.6 °F 29.99 in WNW 8.0 mph 11.0 mph 78 % 0.00 in 0 W/m2
06:28 31.5 °F 25.7 °F 29.99 in WNW 7.0 mph 10.0 mph 79 % 0.00 in 0 W/m2
06:33 31.5 °F 25.7 °F 29.99 in WNW 7.0 mph 10.0 mph 79 % 0.00 in 0 W/m2
06:38 31.5 °F 25.7 °F 29.99 in WNW 7.0 mph 10.0 mph 79 % 0.00 in 0 W/m2
06:43 31.3 °F 25.5 °F 29.99 in WNW 7.0 mph 9.0 mph 79 % 0.00 in 0 W/m2
06:48 31.3 °F 25.5 °F 29.99 in WNW 5.0 mph 7.0 mph 79 % 0.00 in 0 W/m2
06:53 31.1 °F 25.3 °F 29.99 in WNW 5.0 mph 7.0 mph 79 % 0.00 in 0 W/m2
06:58 30.9 °F 25.2 °F 29.99 in WNW 5.0 mph 6.0 mph 79 % 0.00 in 0 W/m2
07:03 30.7 °F 25.3 °F 29.99 in WNW 5.0 mph 7.0 mph 80 % 0.00 in 0 W/m2
07:08 30.6 °F 25.1 °F 29.99 in West 3.0 mph 5.0 mph 80 % 0.00 in 0 W/m2
07:13 30.4 °F 25.2 °F 29.99 in WNW 5.0 mph 8.0 mph 81 % 0.00 in 0 W/m2
07:18 30.4 °F 25.2 °F 29.98 in WNW 5.0 mph 7.0 mph 81 % 0.00 in 0 W/m2
07:23 30.4 °F 25.5 °F 29.98 in WNW 5.0 mph 8.0 mph 82 % 0.00 in 0 W/m2
07:28 30.4 °F 25.5 °F 29.98 in West 5.0 mph 7.0 mph 82 % 0.00 in 0 W/m2
07:33 30.6 °F 25.7 °F 29.98 in West 6.0 mph 10.0 mph 82 % 0.00 in 0 W/m2
07:38 30.6 °F 26.0 °F 29.98 in West 4.0 mph 7.0 mph 83 % 0.00 in 0 W/m2
07:43 30.6 °F 26.0 °F 29.98 in WNW 3.0 mph 6.0 mph 83 % 0.00 in 0 W/m2
07:48 30.4 °F 25.8 °F 29.98 in West 1.0 mph 4.0 mph 83 % 0.00 in 0 W/m2
07:53 30.2 °F 25.7 °F 29.98 in West 1.0 mph 2.0 mph 83 % 0.00 in 0 W/m2
07:58 30.0 °F 25.5 °F 29.97 in Calm   2.0 mph 83 % 0.00 in 0 W/m2
08:03 29.8 °F 25.6 °F 29.97 in West 2.0 mph 5.0 mph 84 % 0.00 in 5 W/m2
08:08 29.7 °F 25.7 °F 29.97 in West 4.0 mph 6.0 mph 85 % 0.00 in 5 W/m2
08:13 29.7 °F 25.7 °F 29.97 in West 5.0 mph 7.0 mph 85 % 0.00 in 7 W/m2
08:18 29.8 °F 26.2 °F 29.97 in West 5.0 mph 7.0 mph 86 % 0.00 in 9 W/m2
08:23 30.0 °F 26.3 °F 29.97 in West 2.0 mph 5.0 mph 86 % 0.00 in 11 W/m2
08:33 30.4 °F 26.7 °F 29.97 in WNW 5.0 mph 8.0 mph 86 % 0.00 in 14 W/m2
08:38 30.6 °F 26.9 °F 29.97 in WNW 7.0 mph 9.0 mph 86 % 0.00 in 16 W/m2
08:43 30.9 °F 27.2 °F 29.97 in West 9.0 mph 13.0 mph 86 % 0.00 in 18 W/m2
08:49 31.3 °F 27.6 °F 29.97 in West 7.0 mph 10.0 mph 86 % 0.00 in 19 W/m2
08:54 31.5 °F 27.8 °F 29.97 in WNW 7.0 mph 10.0 mph 86 % 0.00 in 21 W/m2
08:59 31.6 °F 27.9 °F 29.97 in WNW 8.0 mph 12.0 mph 86 % 0.00 in 26 W/m2
09:04 31.8 °F 28.1 °F 29.97 in WNW 7.0 mph 10.0 mph 86 % 0.00 in 32 W/m2
09:09 32.2 °F 28.5 °F 29.97 in WNW 7.0 mph 11.0 mph 86 % 0.00 in 26 W/m2
09:14 32.2 °F 28.5 °F 29.97 in WNW 6.0 mph 8.0 mph 86 % 0.00 in 23 W/m2
09:19 32.2 °F 28.2 °F 29.97 in WNW 6.0 mph 9.0 mph 85 % 0.00 in 25 W/m2
09:24 32.2 °F 28.5 °F 29.97 in WNW 5.0 mph 8.0 mph 86 % 0.00 in 32 W/m2
09:29 32.2 °F 28.5 °F 29.96 in WNW 5.0 mph 9.0 mph 86 % 0.00 in 37 W/m2
09:34 32.4 °F 28.6 °F 29.96 in West 6.0 mph 8.0 mph 86 % 0.00 in 139 W/m2
09:39 32.7 °F 29.3 °F 29.96 in West 6.0 mph 9.0 mph 87 % 0.00 in 146 W/m2
09:44 33.3 °F 29.8 °F 29.96 in West 7.0 mph 11.0 mph 87 % 0.00 in 104 W/m2
09:49 33.6 °F 30.2 °F 29.96 in WNW 8.0 mph 12.0 mph 87 % 0.00 in 171 W/m2
09:54 34.2 °F 30.4 °F 29.96 in West 9.0 mph 12.0 mph 86 % 0.00 in 188 W/m2
09:55 34.2 °F 30.4 °F 29.96 in West 8.0 mph 12.0 mph 86 % 0.00 in 113 W/m2
10:00 34.3 °F 30.6 °F 29.96 in West 9.0 mph 14.0 mph 86 % 0.00 in 93 W/m2
10:05 34.3 °F 30.6 °F 29.96 in West 9.0 mph 13.0 mph 86 % 0.00 in 77 W/m2
10:10 34.3 °F 30.6 °F 29.96 in WNW 7.0 mph 10.0 mph 86 % 0.00 in 74 W/m2
10:15 34.3 °F 30.9 °F 29.96 in West 6.0 mph 11.0 mph 87 % 0.00 in 111 W/m2
10:20 34.3 °F 30.9 °F 29.96 in West 6.0 mph 9.0 mph 87 % 0.00 in 134 W/m2
10:25 34.5 °F 31.0 °F 29.96 in WNW 5.0 mph 8.0 mph 87 % 0.00 in 121 W/m2
10:30 34.5 °F 31.0 °F 29.95 in West 5.0 mph 9.0 mph 87 % 0.00 in 120 W/m2
10:35 34.7 °F 31.2 °F 29.95 in WNW 4.0 mph 7.0 mph 87 % 0.00 in 86 W/m2
10:40 34.9 °F 31.4 °F 29.95 in West 5.0 mph 8.0 mph 87 % 0.00 in 86 W/m2
10:45 34.9 °F 31.4 °F 29.95 in WNW 6.0 mph 10.0 mph 87 % 0.00 in 88 W/m2
10:50 35.1 °F 31.3 °F 29.94 in WNW 5.0 mph 10.0 mph 86 % 0.00 in 97 W/m2
10:55 35.2 °F 31.5 °F 29.94 in West 6.0 mph 11.0 mph 86 % 0.00 in 97 W/m2
11:00 35.4 °F 31.4 °F 29.94 in West 8.0 mph 13.0 mph 85 % 0.00 in 98 W/m2
11:05 35.4 °F 31.4 °F 29.93 in West 5.0 mph 8.0 mph 85 % 0.00 in 104 W/m2
11:13 35.8 °F 31.7 °F 29.93 in West 4.0 mph 7.0 mph 85 % 0.00 in 105 W/m2
11:18 35.8 °F 31.4 °F 29.93 in West 2.0 mph 6.0 mph 84 % 0.00 in 104 W/m2
11:23 35.8 °F 31.4 °F 29.93 in West 5.0 mph 9.0 mph 84 % 0.00 in 97 W/m2
11:28 36.0 °F 31.6 °F 29.93 in West 3.0 mph 7.0 mph 84 % 0.00 in 90 W/m2
11:33 36.0 °F 31.6 °F 29.93 in West 6.0 mph 9.0 mph 84 % 0.00 in 81 W/m2
11:38 36.1 °F 31.5 °F 29.93 in WNW 7.0 mph 12.0 mph 83 % 0.00 in 76 W/m2
11:43 36.1 °F 31.5 °F 29.92 in West 7.0 mph 11.0 mph 83 % 0.00 in 83 W/m2
11:48 36.1 °F 31.5 °F 29.92 in West 9.0 mph 13.0 mph 83 % 0.00 in 81 W/m2
11:53 36.1 °F 31.5 °F 29.92 in West 7.0 mph 10.0 mph 83 % 0.00 in 77 W/m2
11:58 36.1 °F 31.5 °F 29.92 in West 7.0 mph 9.0 mph 83 % 0.00 in 74 W/m2
12:03 36.1 °F 31.5 °F 29.91 in West 8.0 mph 11.0 mph 83 % 0.00 in 74 W/m2
12:08 36.3 °F 31.7 °F 29.92 in WNW 8.0 mph 15.0 mph 83 % 0.00 in 67 W/m2
12:13 36.3 °F 31.4 °F 29.91 in West 10.0 mph 15.0 mph 82 % 0.00 in 51 W/m2
12:18 36.3 °F 31.4 °F 29.91 in West 10.0 mph 14.0 mph 82 % 0.00 in 60 W/m2
12:23 36.3 °F 31.4 °F 29.91 in West 10.0 mph 14.0 mph 82 % 0.00 in 60 W/m2
12:28 36.3 °F 31.4 °F 29.91 in West 9.0 mph 15.0 mph 82 % 0.00 in 74 W/m2
12:33 36.3 °F 31.4 °F 29.90 in West 10.0 mph 15.0 mph 82 % 0.00 in 79 W/m2
12:38 36.3 °F 31.0 °F 29.90 in West 11.0 mph 15.0 mph 81 % 0.00 in 83 W/m2
12:43 36.3 °F 31.0 °F 29.90 in West 9.0 mph 18.0 mph 81 % 0.00 in 83 W/m2
12:48 36.3 °F 31.0 °F 29.90 in West 10.0 mph 14.0 mph 81 % 0.00 in 88 W/m2
12:53 36.5 °F 31.2 °F 29.89 in WNW 8.0 mph 14.0 mph 81 % 0.00 in 88 W/m2
12:59 36.5 °F 31.2 °F 29.89 in West 10.0 mph 15.0 mph 81 % 0.00 in 83 W/m2
13:04 36.7 °F 31.4 °F 29.89 in West 9.0 mph 15.0 mph 81 % 0.00 in 84 W/m2
13:09 36.7 °F 31.4 °F 29.89 in West 9.0 mph 14.0 mph 81 % 0.00 in 74 W/m2
13:14 36.7 °F 31.4 °F 29.89 in West 8.0 mph 11.0 mph 81 % 0.00 in 63 W/m2
13:19 36.7 °F 31.4 °F 29.88 in West 8.0 mph 12.0 mph 81 % 0.00 in 60 W/m2
13:24 36.7 °F 31.7 °F 29.88 in West 6.0 mph 9.0 mph 82 % 0.00 in 60 W/m2
13:29 36.7 °F 31.7 °F 29.88 in West 7.0 mph 11.0 mph 82 % 0.00 in 62 W/m2
13:34 36.7 °F 31.7 °F 29.87 in West 7.0 mph 12.0 mph 82 % 0.00 in 65 W/m2
13:39 36.7 °F 32.0 °F 29.87 in West 7.0 mph 13.0 mph 83 % 0.00 in 69 W/m2
13:44 36.7 °F 32.0 °F 29.87 in West 8.0 mph 12.0 mph 83 % 0.00 in 67 W/m2
13:49 36.7 °F 32.0 °F 29.86 in West 9.0 mph 15.0 mph 83 % 0.00 in 65 W/m2
13:54 36.5 °F 31.8 °F 29.86 in West 7.0 mph 10.0 mph 83 % 0.00 in 65 W/m2
13:59 36.5 °F 31.8 °F 29.86 in West 7.0 mph 10.0 mph 83 % 0.00 in 67 W/m2
14:04 36.5 °F 31.8 °F 29.85 in West 6.0 mph 9.0 mph 83 % 0.00 in 60 W/m2
14:09 36.5 °F 31.8 °F 29.85 in West 6.0 mph 9.0 mph 83 % 0.00 in 62 W/m2
14:14 36.5 °F 31.8 °F 29.85 in West 5.0 mph 11.0 mph 83 % 0.00 in 58 W/m2
14:19 36.5 °F 31.8 °F 29.85 in West 6.0 mph 9.0 mph 83 % 0.00 in 46 W/m2
14:24 36.3 °F 31.7 °F 29.85 in West 4.0 mph 6.0 mph 83 % 0.00 in 44 W/m2
14:29 36.3 °F 31.7 °F 29.84 in WSW 7.0 mph 10.0 mph 83 % 0.00 in 39 W/m2
14:34 36.1 °F 31.5 °F 29.84 in West 7.0 mph 11.0 mph 83 % 0.00 in 32 W/m2
14:39 36.1 °F 31.8 °F 29.84 in West 5.0 mph 9.0 mph 84 % 0.00 in 25 W/m2
14:44 35.8 °F 31.4 °F 29.84 in West 6.0 mph 10.0 mph 84 % 0.00 in 21 W/m2
14:49 35.6 °F 31.5 °F 29.83 in West 4.0 mph 9.0 mph 85 % 0.00 in 25 W/m2
14:54 35.4 °F 31.4 °F 29.83 in West 4.0 mph 5.0 mph 85 % 0.00 in 35 W/m2
14:59 35.2 °F 31.5 °F 29.83 in West 5.0 mph 8.0 mph 86 % 0.00 in 37 W/m2
15:04 35.2 °F 31.5 °F 29.82 in West 7.0 mph 10.0 mph 86 % 0.00 in 30 W/m2
15:09 35.4 °F 31.9 °F 29.83 in West 7.0 mph 10.0 mph 87 % 0.00 in 25 W/m2
15:14 35.4 °F 31.9 °F 29.83 in WNW 6.0 mph 9.0 mph 87 % 0.00 in 21 W/m2
15:19 35.2 °F 31.8 °F 29.83 in West 6.0 mph 10.0 mph 87 % 0.00 in 18 W/m2
15:24 35.2 °F 31.8 °F 29.83 in West 7.0 mph 13.0 mph 87 % 0.00 in 18 W/m2
15:30 35.1 °F 31.6 °F 29.82 in West 7.0 mph 10.0 mph 87 % 0.00 in 16 W/m2
15:36 34.9 °F 31.4 °F 29.82 in West 6.0 mph 10.0 mph 87 % 0.00 in 7 W/m2
15:39 34.9 °F 31.4 °F 29.81 in West 6.0 mph 10.0 mph 87 % 0.00 in 5 W/m2
15:44 34.9 °F 31.4 °F 29.81 in West 3.0 mph 7.0 mph 87 % 0.00 in 5 W/m2
15:49 34.7 °F 31.2 °F 29.81 in West 6.0 mph 9.0 mph 87 % 0.00 in 0 W/m2
15:59 34.5 °F 31.3 °F 29.81 in West 5.0 mph 8.0 mph 88 % 0.00 in 0 W/m2
16:04 34.5 °F 31.3 °F 29.81 in West 3.0 mph 5.0 mph 88 % 0.00 in 0 W/m2
16:09 34.3 °F 31.2 °F 29.81 in West 6.0 mph 10.0 mph 88 % 0.00 in 0 W/m2
16:14 34.3 °F 31.2 °F 29.81 in West 5.0 mph 7.0 mph 88 % 0.00 in 0 W/m2
16:19 34.3 °F 31.4 °F 29.81 in WSW 4.0 mph 9.0 mph 89 % 0.00 in 0 W/m2
16:24 34.2 °F 31.3 °F 29.80 in West 3.0 mph 6.0 mph 89 % 0.00 in 0 W/m2
16:29 34.2 °F 31.3 °F 29.80 in West 1.0 mph 4.0 mph 89 % 0.00 in 0 W/m2
16:34 34.0 °F 31.1 °F 29.79 in Calm   1.0 mph 89 % 0.00 in 0 W/m2
16:39 33.8 °F 30.9 °F 29.79 in Calm   1.0 mph 89 % 0.00 in 0 W/m2
16:44 33.6 °F 30.7 °F 29.79 in Calm     89 % 0.00 in 0 W/m2
16:49 33.4 °F 30.5 °F 29.78 in Calm     89 % 0.00 in 0 W/m2
16:54 33.1 °F 30.2 °F 29.78 in Calm     89 % 0.00 in 0 W/m2
16:59 32.9 °F 30.0 °F 29.78 in Calm     89 % 0.00 in 0 W/m2
17:04 32.7 °F 30.1 °F 29.78 in West 2.0 mph 4.0 mph 90 % 0.00 in 0 W/m2
17:09 32.7 °F 30.4 °F 29.78 in West 4.0 mph 7.0 mph 91 % 0.00 in 0 W/m2
17:19 32.9 °F 30.6 °F 29.78 in West 7.0 mph 11.0 mph 91 % 0.00 in 0 W/m2
17:24 33.1 °F 31.0 °F 29.78 in West 6.0 mph 8.0 mph 92 % 0.00 in 0 W/m2
17:29 33.3 °F 31.2 °F 29.78 in WNW 5.0 mph 7.0 mph 92 % 0.00 in 0 W/m2
17:34 33.3 °F 31.2 °F 29.78 in WNW 4.0 mph 7.0 mph 92 % 0.00 in 0 W/m2
17:39 33.3 °F 31.2 °F 29.78 in WNW 5.0 mph 6.0 mph 92 % 0.00 in 0 W/m2
17:44 33.3 °F 31.2 °F 29.78 in WNW 4.0 mph 5.0 mph 92 % 0.00 in 0 W/m2
17:49 33.3 °F 31.2 °F 29.77 in WNW 3.0 mph 5.0 mph 92 % 0.00 in 0 W/m2
17:54 33.3 °F 31.2 °F 29.77 in West 6.0 mph 10.0 mph 92 % 0.00 in 0 W/m2
18:00 33.4 °F 31.4 °F 29.76 in West 5.0 mph 8.0 mph 92 % 0.00 in 0 W/m2
18:05 33.4 °F 31.4 °F 29.76 in WNW 6.0 mph 8.0 mph 92 % 0.00 in 0 W/m2
18:10 33.6 °F 31.5 °F 29.76 in WNW 4.0 mph 7.0 mph 92 % 0.00 in 0 W/m2
18:15 33.6 °F 31.5 °F 29.76 in West 5.0 mph 8.0 mph 92 % 0.00 in 0 W/m2
18:20 33.6 °F 31.5 °F 29.75 in West 5.0 mph 8.0 mph 92 % 0.00 in 0 W/m2
18:25 33.6 °F 31.5 °F 29.75 in West 5.0 mph 8.0 mph 92 % 0.00 in 0 W/m2
18:30 33.6 °F 31.5 °F 29.75 in West 4.0 mph 8.0 mph 92 % 0.00 in 0 W/m2
18:35 33.6 °F 31.5 °F 29.75 in WNW 4.0 mph 7.0 mph 92 % 0.00 in 0 W/m2
18:40 33.4 °F 31.4 °F 29.74 in West 4.0 mph 6.0 mph 92 % 0.00 in 0 W/m2
18:45 33.4 °F 31.4 °F 29.74 in WNW 2.0 mph 5.0 mph 92 % 0.00 in 0 W/m2
18:50 33.3 °F 31.2 °F 29.74 in WNW 1.0 mph 6.0 mph 92 % 0.00 in 0 W/m2
18:55 33.1 °F 31.0 °F 29.73 in West 4.0 mph 6.0 mph 92 % 0.00 in 0 W/m2
19:00 33.1 °F 31.0 °F 29.73 in West 4.0 mph 6.0 mph 92 % 0.00 in 0 W/m2
19:05 32.9 °F 30.8 °F 29.73 in West 2.0 mph 5.0 mph 92 % 0.00 in 0 W/m2
19:10 32.7 °F 30.7 °F 29.73 in West 4.0 mph 5.0 mph 92 % 0.00 in 0 W/m2
19:15 32.7 °F 30.7 °F 29.73 in West 5.0 mph 7.0 mph 92 % 0.00 in 0 W/m2
19:20 32.7 °F 30.7 °F 29.73 in WNW 5.0 mph 8.0 mph 92 % 0.00 in 0 W/m2
19:25 32.7 °F 30.7 °F 29.73 in WNW 5.0 mph 7.0 mph 92 % 0.00 in 0 W/m2
19:26 32.7 °F 30.7 °F 29.73 in West 5.0 mph 8.0 mph 92 % 0.00 in 0 W/m2
19:36 32.9 °F 30.8 °F 29.72 in West 4.0 mph 7.0 mph 92 % 0.00 in 0 W/m2
19:41 33.1 °F 31.0 °F 29.72 in West 3.0 mph 5.0 mph 92 % 0.00 in 0 W/m2
19:46 33.1 °F 31.0 °F 29.72 in West 4.0 mph 6.0 mph 92 % 0.00 in 0 W/m2
19:51 33.1 °F 31.0 °F 29.71 in West 3.0 mph 7.0 mph 92 % 0.00 in 0 W/m2
19:56 33.1 °F 31.0 °F 29.71 in West 4.0 mph 7.0 mph 92 % 0.00 in 0 W/m2
20:01 32.9 °F 30.8 °F 29.71 in WNW 3.0 mph 6.0 mph 92 % 0.00 in 0 W/m2
20:06 32.7 °F 30.7 °F 29.70 in WNW 5.0 mph 7.0 mph 92 % 0.00 in 0 W/m2
20:11 32.7 °F 30.7 °F 29.70 in West 3.0 mph 7.0 mph 92 % 0.00 in 0 W/m2
20:16 32.9 °F 30.8 °F 29.70 in West 2.0 mph 5.0 mph 92 % 0.00 in 0 W/m2
20:26 33.1 °F 31.0 °F 29.69 in Calm     92 % 0.00 in 0 W/m2
20:31 33.1 °F 31.0 °F 29.69 in Calm     92 % 0.00 in 0 W/m2
20:36 33.1 °F 31.0 °F 29.68 in Calm     92 % 0.00 in 0 W/m2
20:46 33.1 °F 31.0 °F 29.68 in West 1.0 mph 4.0 mph 92 % 0.00 in 0 W/m2
20:51 33.1 °F 31.0 °F 29.68 in West 3.0 mph 5.0 mph 92 % 0.00 in 0 W/m2
20:56 33.3 °F 31.2 °F 29.68 in West 2.0 mph 5.0 mph 92 % 0.00 in 0 W/m2
21:01 33.4 °F 31.6 °F 29.67 in West 3.0 mph 5.0 mph 93 % 0.00 in 0 W/m2
21:06 33.4 °F 31.6 °F 29.67 in WSW 3.0 mph 5.0 mph 93 % 0.00 in 0 W/m2
21:10 33.4 °F 31.6 °F 29.67 in WSW 4.0 mph 6.0 mph 93 % 0.00 in 0 W/m2
21:15 33.6 °F 31.8 °F 29.66 in WSW 1.0 mph 2.0 mph 93 % 0.00 in 0 W/m2
21:20 33.6 °F 31.8 °F 29.66 in Calm     93 % 0.00 in 0 W/m2
21:25 33.6 °F 31.8 °F 29.66 in Calm     93 % 0.00 in 0 W/m2
21:30 33.6 °F 31.8 °F 29.65 in Calm     93 % 0.00 in 0 W/m2
21:35 33.4 °F 31.6 °F 29.65 in Calm     93 % 0.00 in 0 W/m2
21:40 33.4 °F 31.6 °F 29.65 in WSW 2.0 mph 4.0 mph 93 % 0.00 in 0 W/m2
21:45 33.4 °F 31.6 °F 29.64 in WSW 2.0 mph 4.0 mph 93 % 0.00 in 0 W/m2
21:50 33.4 °F 31.6 °F 29.64 in Calm   2.0 mph 93 % 0.00 in 0 W/m2
21:55 33.4 °F 31.6 °F 29.63 in WSW 1.0 mph 2.0 mph 93 % 0.00 in 0 W/m2
22:00 33.4 °F 31.6 °F 29.63 in Calm     93 % 0.00 in 0 W/m2
22:05 33.4 °F 31.6 °F 29.63 in WSW 1.0 mph 2.0 mph 93 % 0.00 in 0 W/m2
22:10 33.4 °F 31.9 °F 29.62 in WNW 2.0 mph 5.0 mph 94 % 0.00 in 0 W/m2
22:15 33.6 °F 32.1 °F 29.62 in WNW 2.0 mph 4.0 mph 94 % 0.00 in 0 W/m2
22:20 33.6 °F 32.1 °F 29.61 in WNW 1.0 mph 4.0 mph 94 % 0.00 in 0 W/m2
22:25 33.6 °F 32.1 °F 29.61 in Calm   2.0 mph 94 % 0.00 in 0 W/m2
22:30 33.8 °F 32.3 °F 29.60 in WNW 1.0 mph 3.0 mph 94 % 0.00 in 0 W/m2
22:40 33.8 °F 32.3 °F 29.59 in Calm   1.0 mph 94 % 0.00 in 0 W/m2
22:45 33.6 °F 32.1 °F 29.59 in WNW 3.0 mph 5.0 mph 94 % 0.00 in 0 W/m2
22:50 33.6 °F 32.1 °F 29.59 in WNW 3.0 mph 5.0 mph 94 % 0.00 in 0 W/m2
22:55 33.6 °F 32.1 °F 29.59 in WNW 2.0 mph 4.0 mph 94 % 0.00 in 0 W/m2
23:01 33.6 °F 32.1 °F 29.59 in WNW 1.0 mph 4.0 mph 94 % 0.00 in 0 W/m2
23:06 33.6 °F 32.1 °F 29.58 in WNW 1.0 mph 4.0 mph 94 % 0.00 in 0 W/m2
23:11 33.6 °F 32.1 °F 29.58 in WNW 1.0 mph 2.0 mph 94 % 0.00 in 0 W/m2
23:16 33.6 °F 32.1 °F 29.58 in Calm   2.0 mph 94 % 0.00 in 0 W/m2
23:21 33.6 °F 32.1 °F 29.57 in WNW 2.0 mph 4.0 mph 94 % 0.00 in 0 W/m2
23:26 33.6 °F 32.1 °F 29.57 in WNW 1.0 mph 3.0 mph 94 % 0.00 in 0 W/m2
23:36 33.6 °F 32.1 °F 29.56 in WNW 1.0 mph 3.0 mph 94 % 0.00 in 0 W/m2
23:41 33.6 °F 32.1 °F 29.56 in Calm   1.0 mph 94 % 0.00 in 0 W/m2
23:46 33.6 °F 32.1 °F 29.55 in WNW 1.0 mph 4.0 mph 94 % 0.00 in 0 W/m2
23:51 33.8 °F 32.3 °F 29.55 in Calm   2.0 mph 94 % 0.00 in 0 W/m2
23:56 33.8 °F 32.3 °F 29.54 in WNW 3.0 mph 5.0 mph 94 % 0.00 in 0 W/m2
Delerius-Weather
Compliments of Weather Underground - 2.25 mb

Data updates at regular intervals.